Time;durP1;ratioP1;P1;durP2;ratioP2;P2;SDS_P1;SDS_P2;PMS_P1;PMS_P2;Temp;Humidity;BMP_temperature;BMP_pressure;BME280_temperature;BME280_humidity;BME280_pressure;Samples;Min_cycle;Max_cycle;Signal;HPM_P1;HPM_P2
2023/05/11 00:00:49;;;;;;;;;;;;;;;19.38;67.12;101405.25;7397275;19;1566;-50
2023/05/11 00:03:17;;;;;;;;;;;;;;;19.38;67.29;101415.97;7397127;19;1852;-50
2023/05/11 00:05:51;;;;;;;;;;;;;;;19.38;66.98;101405.25;7398565;19;1479;-50
2023/05/11 00:08:20;;;;;;;;;;;;;;;19.39;67.07;101400.75;7397935;19;1850;-51
2023/05/11 00:10:49;;;;;;;;;;;;;;;19.41;66.98;101414.88;7399167;19;1016;-50
2023/05/11 00:13:17;;;;;;;;;;;;;;;19.34;66.89;101419.88;7396472;19;1260;-51
2023/05/11 00:15:45;;;;;;;;;;;;;;;19.30;67.12;101410.38;7397480;19;1554;-50
2023/05/11 00:18:13;;;;;;;;;;;;;;;19.38;67.14;101407.09;7398358;19;1558;-50
2023/05/11 00:20:42;;;;;;;;;;;;;;;19.27;67.25;101408.78;7397021;19;1462;-51
2023/05/11 00:23:13;;;;;;;;;;;;;;;19.36;67.05;101406.34;7397689;19;1845;-50
2023/05/11 00:25:41;;;;;;;;;;;;;;;19.36;66.98;101401.84;7397632;19;1502;-49
2023/05/11 00:28:09;;;;;;;;;;;;;;;19.37;66.81;101403.53;7396120;19;1422;-49
2023/05/11 00:30:38;;;;;;;;;;;;;;;19.34;67.04;101403.78;7398175;19;1261;-57
2023/05/11 00:33:06;;;;;;;;;;;;;;;19.31;67.28;101404.03;7396372;19;1436;-49
2023/05/11 00:35:34;;;;;;;;;;;;;;;19.31;67.37;101405.88;7395247;19;1182;-49
2023/05/11 00:38:03;;;;;;;;;;;;;;;19.28;67.04;101409.66;7396614;19;1546;-49
2023/05/11 00:40:35;;;;;;;;;;;;;;;19.29;67.00;101411.34;7395837;19;1617;-49
2023/05/11 00:43:03;;;;;;;;;;;;;;;19.27;66.93;101407.94;7394860;19;1858;-50
2023/05/11 00:45:32;;;;;;;;;;;;;;;19.26;67.08;101400.88;7396324;19;1391;-49
2023/05/11 00:48:00;;;;;;;;;;;;;;;19.24;67.05;101414.41;7396288;19;1594;-50
2023/05/11 00:50:29;;;;;;;;;;;;;;;19.24;66.92;101402.81;6871409;19;10000083;-50
2023/05/11 00:52:58;;;;;;;;;;;;;;;19.23;67.18;101414.50;7387629;19;1851;-49
2023/05/11 00:55:27;;;;;;;;;;;;;;;19.22;67.12;101411.00;7388807;19;1490;-49
2023/05/11 00:57:59;;;;;;;;;;;;;;;19.23;66.96;101401.09;7389267;19;1499;-49
2023/05/11 01:00:27;;;;;;;;;;;;;;;19.18;66.98;101400.59;7388485;19;1510;-49
2023/05/11 01:02:56;;;;;;;;;;;;;;;19.20;66.87;101401.34;7387782;19;1851;-49
2023/05/11 01:05:24;;;;;;;;;;;;;;;19.21;66.94;101392.31;7392533;19;1418;-49
2023/05/11 01:07:56;;;;;;;;;;;;;;;19.24;66.70;101402.81;7397788;19;1589;-49
2023/05/11 01:10:29;;;;;;;;;;;;;;;19.25;66.64;101404.50;7394874;19;1475;-49
2023/05/11 01:13:08;;;;;;;;;;;;;;;19.23;66.65;101401.09;7395160;19;1472;-49
2023/05/11 01:15:41;;;;;;;;;;;;;;;19.19;66.91;101392.44;7397703;19;1628;-49
2023/05/11 01:18:13;;;;;;;;;;;;;;;19.24;66.68;101408.19;7398784;19;1562;-49
2023/05/11 01:20:45;;;;;;;;;;;;;;;19.22;66.57;101388.69;7401412;19;1562;-49
2023/05/11 01:23:28;;;;;;;;;;;;;;;19.21;66.72;101397.69;7400060;19;1867;-49
2023/05/11 01:26:10;;;;;;;;;;;;;;;19.24;66.68;101405.50;7402441;19;1606;-50
2023/05/11 01:28:53;;;;;;;;;;;;;;;19.24;66.51;101400.16;7401235;19;1448;-49
2023/05/11 01:31:26;;;;;;;;;;;;;;;19.26;66.56;101403.56;7399783;19;1689;-49
2023/05/11 01:33:57;;;;;;;;;;;;;;;19.26;66.40;101400.88;7401713;19;1268;-49
2023/05/11 01:36:28;;;;;;;;;;;;;;;19.24;66.44;101400.16;7401382;19;1644;-49
2023/05/11 01:39:00;;;;;;;;;;;;;;;19.16;66.28;101406.09;7401882;19;1526;-49
2023/05/11 01:41:29;;;;;;;;;;;;;;;19.17;66.53;101401.59;7401826;19;1561;-49
2023/05/11 01:44:00;;;;;;;;;;;;;;;19.03;67.12;101400.84;7399675;19;1885;-49
2023/05/11 01:46:33;;;;;;;;;;;;;;;19.68;65.85;101401.09;7402772;19;1048;-49
2023/05/11 01:49:03;;;;;;;;;;;;;;;20.53;63.41;101384.22;7402320;19;1192;-49
2023/05/11 01:51:34;;;;;;;;;;;;;;;20.70;63.05;101395.38;7400223;19;1854;-49
2023/05/11 01:54:04;;;;;;;;;;;;;;;20.72;63.04;101399.63;7400832;19;1474;-50
2023/05/11 01:56:32;;;;;;;;;;;;;;;20.66;63.30;101409.06;7400593;19;1225;-49
2023/05/11 01:59:01;;;;;;;;;;;;;;;20.73;63.31;101389.72;7400043;19;1316;-49
2023/05/11 02:01:33;;;;;;;;;;;;;;;20.75;63.23;101385.97;7401365;19;1549;-49
2023/05/11 02:04:03;;;;;;;;;;;;;;;20.73;63.44;101395.97;7398762;19;1858;-50
2023/05/11 02:06:32;;;;;;;;;;;;;;;20.76;63.30;101389.50;7400524;19;1296;-49
2023/05/11 02:09:02;;;;;;;;;;;;;;;20.74;63.37;101391.44;7399742;19;1707;-49
2023/05/11 02:11:30;;;;;;;;;;;;;;;20.79;63.13;101391.91;7401054;19;1234;-49
2023/05/11 02:14:00;;;;;;;;;;;;;;;20.82;63.28;101392.47;7400411;19;1560;-49
2023/05/11 02:16:30;;;;;;;;;;;;;;;20.87;63.23;101402.88;7399825;19;1195;-49
2023/05/11 02:19:01;;;;;;;;;;;;;;;20.90;63.20;101405.28;7400529;19;1178;-50
2023/05/11 02:21:31;;;;;;;;;;;;;;;20.87;63.24;101394.81;7400291;19;1266;-49
2023/05/11 02:24:00;;;;;;;;;;;;;;;20.90;63.08;101391.81;7398714;19;1848;-49
2023/05/11 02:26:28;;;;;;;;;;;;;;;20.91;63.03;101384.59;7400090;19;1220;-49
2023/05/11 02:28:57;;;;;;;;;;;;;;;20.88;63.22;101391.09;7399629;19;1542;-49
2023/05/11 02:31:27;;;;;;;;;;;;;;;20.94;63.19;101395.94;7398344;19;1589;-51
2023/05/11 02:33:56;;;;;;;;;;;;;;;20.92;63.26;101380.94;7399641;19;1445;-49
2023/05/11 02:36:30;;;;;;;;;;;;;;;20.95;62.95;101381.53;7399167;19;1435;-49
2023/05/11 02:39:04;;;;;;;;;;;;;;;20.97;62.88;101384.06;7399313;19;1275;-49
2023/05/11 02:41:33;;;;;;;;;;;;;;;20.97;62.96;101397.50;7400539;19;1309;-51
2023/05/11 02:44:04;;;;;;;;;;;;;;;21.00;62.87;101394.56;7397547;19;1846;-49
2023/05/11 02:46:35;;;;;;;;;;;;;;;20.98;63.03;101394.69;7399521;19;1617;-49
2023/05/11 02:49:05;;;;;;;;;;;;;;;21.03;62.88;101400.53;7399311;19;1613;-51
2023/05/11 02:51:38;;;;;;;;;;;;;;;21.00;62.81;101399.94;7399316;19;1209;-51
2023/05/11 02:54:09;;;;;;;;;;;;;;;21.01;63.09;101402.50;7396646;19;1719;-51
2023/05/11 02:56:37;;;;;;;;;;;;;;;21.08;63.01;101396.59;7399648;19;1395;-51
2023/05/11 02:59:06;;;;;;;;;;;;;;;21.08;63.07;101402.81;7399036;19;1612;-50
2023/05/11 03:01:35;;;;;;;;;;;;;;;21.04;62.97;101413.00;7392861;19;1158;-51
2023/05/11 03:04:05;;;;;;;;;;;;;;;21.03;62.90;101411.28;7396054;19;1853;-51
2023/05/11 03:06:33;;;;;;;;;;;;;;;21.10;62.95;101422.38;7399140;19;1518;-50
2023/05/11 03:09:05;;;;;;;;;;;;;;;21.14;62.86;101398.75;7398447;19;1479;-51
2023/05/11 03:11:33;;;;;;;;;;;;;;;21.14;62.59;101415.72;7399250;19;1250;-50
2023/05/11 03:14:02;;;;;;;;;;;;;;;21.12;62.77;101406.09;7398436;19;1459;-50
2023/05/11 03:16:31;;;;;;;;;;;;;;;21.15;62.74;101408.50;7398144;19;1238;-51
2023/05/11 03:19:01;;;;;;;;;;;;;;;21.14;62.72;101417.56;7398860;19;1264;-50
2023/05/11 03:21:29;;;;;;;;;;;;;;;21.17;62.58;101417.28;7398550;19;1195;-50
2023/05/11 03:23:58;;;;;;;;;;;;;;;21.20;62.42;101415.19;7397815;19;1871;-50
2023/05/11 03:26:31;;;;;;;;;;;;;;;21.18;62.77;101413.63;7398819;19;1163;-50
2023/05/11 03:29:02;;;;;;;;;;;;;;;21.26;62.38;101411.13;7395176;19;1474;-51
2023/05/11 03:31:30;;;;;;;;;;;;;;;21.01;62.35;101370.25;7397737;19;1546;-50
2023/05/11 03:33:59;;;;;;;;;;;;;;;21.23;62.56;101416.78;7398463;19;1565;-50
2023/05/11 03:36:28;;;;;;;;;;;;;;;21.28;62.54;101419.06;7397661;19;1224;-50
2023/05/11 03:38:58;;;;;;;;;;;;;;;21.32;62.10;101425.88;7398003;19;1479;-50
2023/05/11 03:41:30;;;;;;;;;;;;;;;21.37;62.13;101429.88;7398161;19;1533;-50
2023/05/11 03:44:00;;;;;;;;;;;;;;;21.38;62.06;101423.47;7396954;19;1862;-50
2023/05/11 03:46:29;;;;;;;;;;;;;;;21.36;62.28;101427.31;7397860;19;1472;-51
2023/05/11 03:48:58;;;;;;;;;;;;;;;21.40;61.88;101417.97;7398349;19;1553;-50
2023/05/11 03:51:26;;;;;;;;;;;;;;;21.48;61.87;101436.16;7397253;19;1487;-50
2023/05/11 03:53:54;;;;;;;;;;;;;;;21.49;61.68;101433.34;7398594;19;1153;-50
2023/05/11 03:56:23;;;;;;;;;;;;;;;21.48;61.85;101434.31;7398370;19;1090;-50
2023/05/11 03:58:54;;;;;;;;;;;;;;;21.52;61.87;101440.28;7396667;19;1427;-51
2023/05/11 04:01:23;;;;;;;;;;;;;;;21.30;62.34;101444.81;7397987;19;1566;-50
2023/05/11 04:03:51;;;;;;;;;;;;;;;20.96;62.97;101458.50;7397022;19;1878;-50
2023/05/11 04:06:20;;;;;;;;;;;;;;;20.91;63.08;101443.75;7397328;19;1198;-49
2023/05/11 04:08:49;;;;;;;;;;;;;;;20.89;63.21;101457.34;7397091;19;1531;-50
2023/05/11 04:11:17;;;;;;;;;;;;;;;20.82;63.25;101445.41;7398348;19;1016;-49
2023/05/11 04:13:46;;;;;;;;;;;;;;;20.71;63.52;101450.84;7397574;19;1561;-49
2023/05/11 04:16:16;;;;;;;;;;;;;;;20.64;63.57;101445.97;7396762;19;1546;-49
2023/05/11 04:18:45;;;;;;;;;;;;;;;20.58;63.84;101462.59;7397401;19;1443;-50
2023/05/11 04:21:13;;;;;;;;;;;;;;;20.55;63.92;101472.75;7394937;19;1542;-50
2023/05/11 04:23:41;;;;;;;;;;;;;;;20.55;63.76;101457.50;7396019;19;1858;-50
2023/05/11 04:26:09;;;;;;;;;;;;;;;20.56;63.44;101451.13;7397849;19;1258;-50
2023/05/11 04:28:38;;;;;;;;;;;;;;;20.61;63.37;101453.44;7396438;19;1546;-50
2023/05/11 04:31:06;;;;;;;;;;;;;;;20.64;63.36;101461.25;7396131;19;1451;-50
2023/05/11 04:33:37;;;;;;;;;;;;;;;20.58;63.35;101445.63;7397085;19;1178;-50
2023/05/11 04:36:06;;;;;;;;;;;;;;;20.55;63.52;101454.81;7396940;19;1851;-50
2023/05/11 04:38:34;;;;;;;;;;;;;;;20.56;63.58;101463.72;7396298;19;1234;-49
2023/05/11 04:41:04;;;;;;;;;;;;;;;20.58;63.29;101454.53;7393665;19;1543;-49
2023/05/11 04:43:33;;;;;;;;;;;;;;;20.72;63.11;101445.34;7396110;19;1854;-49
2023/05/11 04:46:01;;;;;;;;;;;;;;;20.36;62.43;101382.94;7395932;19;1542;-49
2023/05/11 04:48:29;;;;;;;;;;;;;;;20.77;62.77;101451.19;7394794;19;1499;-49
2023/05/11 04:51:00;;;;;;;;;;;;;;;20.63;63.38;101473.84;7395612;19;1284;-49
2023/05/11 04:53:28;;;;;;;;;;;;;;;20.53;63.54;101462.13;7395809;19;1597;-49
2023/05/11 04:55:57;;;;;;;;;;;;;;;20.49;63.60;101465.19;7395928;19;1240;-49
2023/05/11 04:58:25;;;;;;;;;;;;;;;20.13;64.75;101480.69;7396724;19;1095;-49
2023/05/11 05:00:53;;;;;;;;;;;;;;;19.97;65.11;101483.78;7395675;19;1482;-49
2023/05/11 05:03:22;;;;;;;;;;;;;;;19.90;65.54;101461.94;7395896;19;1683;-49
2023/05/11 05:05:50;;;;;;;;;;;;;;;19.88;65.59;101477.31;7394587;19;1867;-49
2023/05/11 05:08:21;;;;;;;;;;;;;;;19.76;66.06;101473.78;7396826;19;1136;-48
2023/05/11 05:10:49;;;;;;;;;;;;;;;19.72;66.02;101466.13;7395948;19;1899;-49
2023/05/11 05:13:18;;;;;;;;;;;;;;;19.73;66.10;101470.50;7396154;19;1111;-49
2023/05/11 05:15:46;;;;;;;;;;;;;;;19.68;65.95;101471.69;7395570;19;1864;-49
2023/05/11 05:18:14;;;;;;;;;;;;;;;19.62;66.28;101461.44;7395974;19;1159;-49
2023/05/11 05:20:43;;;;;;;;;;;;;;;19.61;66.26;101464.25;7395590;19;1142;-49
2023/05/11 05:23:11;;;;;;;;;;;;;;;19.59;66.20;101455.47;7395972;19;1147;-49
2023/05/11 05:25:42;;;;;;;;;;;;;;;19.60;66.35;101458.03;7394162;19;1890;-49
2023/05/11 05:28:10;;;;;;;;;;;;;;;19.64;66.27;101466.72;7395901;19;1707;-49
2023/05/11 05:30:38;;;;;;;;;;;;;;;19.81;65.72;101476.94;7395367;19;1517;-49
2023/05/11 05:33:07;;;;;;;;;;;;;;;19.74;65.80;101474.91;7395350;19;1550;-49
2023/05/11 05:35:35;;;;;;;;;;;;;;;19.70;65.90;101476.94;7394930;19;1242;-49
2023/05/11 05:38:03;;;;;;;;;;;;;;;19.76;65.82;101473.78;7395173;19;1506;-49
2023/05/11 05:40:36;;;;;;;;;;;;;;;19.89;65.29;101472.81;7396020;19;1117;-49
2023/05/11 05:43:06;;;;;;;;;;;;;;;20.01;64.90;101472.66;7396179;19;1000;-49
2023/05/11 05:45:35;;;;;;;;;;;;;;;20.02;64.88;101466.31;7394164;19;1883;-49
2023/05/11 05:48:04;;;;;;;;;;;;;;;19.97;65.16;101475.72;7395341;19;1618;-49
2023/05/11 05:50:33;;;;;;;;;;;;;;;20.02;64.78;101478.91;7392225;19;1648;-49
2023/05/11 05:53:01;;;;;;;;;;;;;;;20.04;64.94;101475.09;7400763;19;1352;-49
2023/05/11 05:55:29;;;;;;;;;;;;;;;19.90;65.22;101482.56;7400849;19;1411;-49
2023/05/11 05:57:57;;;;;;;;;;;;;;;19.84;65.63;101486.59;7401797;19;1549;-49
2023/05/11 06:00:28;;;;;;;;;;;;;;;19.89;65.79;101489.75;7399952;19;1503;-49
2023/05/11 06:02:57;;;;;;;;;;;;;;;19.78;65.82;101479.91;7399174;19;1575;-52
2023/05/11 06:05:25;;;;;;;;;;;;;;;19.89;65.23;101483.53;6878488;19;10000368;-51
2023/05/11 06:07:53;;;;;;;;;;;;;;;20.12;64.69;101473.63;7392184;19;1557;-52
2023/05/11 06:10:22;;;;;;;;;;;;;;;19.97;65.03;101491.81;7390899;19;1456;-52
2023/05/11 06:12:50;;;;;;;;;;;;;;;19.91;65.53;101485.13;7394561;19;1775;-51
2023/05/11 06:15:18;;;;;;;;;;;;;;;20.09;65.03;101466.66;7396221;19;1084;-51
2023/05/11 06:17:49;;;;;;;;;;;;;;;20.08;65.04;101485.59;7393523;19;1482;-51
2023/05/11 06:20:18;;;;;;;;;;;;;;;20.13;64.94;101469.94;7393784;19;2042;-52
2023/05/11 06:22:46;;;;;;;;;;;;;;;20.13;64.86;101486.91;7394557;19;1470;-51
2023/05/11 06:25:14;;;;;;;;;;;;;;;19.96;65.56;101482.06;7393179;19;1855;-51
2023/05/11 06:27:43;;;;;;;;;;;;;;;19.90;65.65;101475.38;7394412;19;1581;-52
2023/05/11 06:30:11;;;;;;;;;;;;;;;20.02;65.45;101495.00;7393898;19;1531;-51
2023/05/11 06:32:40;;;;;;;;;;;;;;;20.00;65.41;101502.31;7393688;19;1428;-52
2023/05/11 06:35:11;;;;;;;;;;;;;;;20.01;65.30;101471.81;7389579;19;1993;-51
2023/05/11 06:37:39;;;;;;;;;;;;;;;19.99;65.45;101481.81;7394396;19;1578;-52
2023/05/11 06:40:09;;;;;;;;;;;;;;;19.99;65.60;101489.88;7393322;19;1542;-52
2023/05/11 06:42:37;;;;;;;;;;;;;;;19.94;66.06;101486.72;7394541;19;1186;-52
2023/05/11 06:45:06;;;;;;;;;;;;;;;19.99;66.06;101500.59;7392345;19;1859;-52
2023/05/11 06:47:34;;;;;;;;;;;;;;;20.04;65.89;101482.31;7394077;19;1962;-52
2023/05/11 06:50:02;;;;;;;;;;;;;;;19.98;66.17;101485.50;7393579;19;1566;-52
2023/05/11 06:52:33;;;;;;;;;;;;;;;19.95;66.39;101485.72;7393465;19;1570;-52
2023/05/11 06:55:02;;;;;;;;;;;;;;;20.03;65.77;101485.94;7393545;19;1530;-52
2023/05/11 06:57:30;;;;;;;;;;;;;;;20.05;65.86;101479.50;7392760;19;1549;-51
2023/05/11 06:59:58;;;;;;;;;;;;;;;20.08;65.84;101477.53;7392825;19;1558;-52
2023/05/11 07:02:26;;;;;;;;;;;;;;;20.15;65.96;101474.19;7392040;19;1545;-51
2023/05/11 07:04:55;;;;;;;;;;;;;;;20.09;66.08;101490.81;7389677;19;2266;-52
2023/05/11 07:07:23;;;;;;;;;;;;;;;20.04;66.03;101480.47;7392312;19;1621;-52
2023/05/11 07:09:54;;;;;;;;;;;;;;;20.11;65.73;101463.84;7395709;19;1594;-51
2023/05/11 07:12:22;;;;;;;;;;;;;;;20.09;65.91;101488.13;7395897;19;1262;-51
2023/05/11 07:14:50;;;;;;;;;;;;;;;19.98;66.04;101478.28;7400418;19;1498;-51
2023/05/11 07:17:19;;;;;;;;;;;;;;;20.05;65.82;101490.25;7399391;19;1812;-51
2023/05/11 07:19:47;;;;;;;;;;;;;;;19.98;65.21;101494.38;7399259;19;1492;-52
2023/05/11 07:22:15;;;;;;;;;;;;;;;20.10;64.86;101492.53;7397228;19;1313;-52
2023/05/11 07:24:44;;;;;;;;;;;;;;;20.12;64.41;101485.22;7397208;19;1857;-51
2023/05/11 07:27:15;;;;;;;;;;;;;;;20.11;64.06;101483.50;7400027;19;1145;-51
2023/05/11 07:29:43;;;;;;;;;;;;;;;20.05;64.13;101484.88;7399466;19;1050;-51
2023/05/11 07:32:11;;;;;;;;;;;;;;;20.08;63.99;101491.81;7398375;19;1482;-52
2023/05/11 07:34:40;;;;;;;;;;;;;;;20.09;64.05;101496.19;7396417;19;1290;-51
2023/05/11 07:37:09;;;;;;;;;;;;;;;20.10;63.89;101484.50;7398501;19;1584;-51
2023/05/11 07:39:37;;;;;;;;;;;;;;;20.11;63.99;101491.53;7398774;19;1513;-51
2023/05/11 07:42:05;;;;;;;;;;;;;;;20.08;63.68;101486.44;7397735;19;1657;-51
2023/05/11 07:44:36;;;;;;;;;;;;;;;20.06;63.66;101481.19;7394436;19;1847;-49
2023/05/11 07:47:04;;;;;;;;;;;;;;;20.22;63.37;101480.78;7395973;19;1478;-49
2023/05/11 07:49:33;;;;;;;;;;;;;;;20.23;63.30;101471.78;7394842;19;1403;-49
2023/05/11 07:52:01;;;;;;;;;;;;;;;20.23;63.38;101493.25;7396663;19;1439;-51
2023/05/11 07:54:30;;;;;;;;;;;;;;;20.08;63.82;101497.19;7395381;19;1674;-50
2023/05/11 07:56:58;;;;;;;;;;;;;;;19.96;64.21;101490.13;7398041;19;1505;-50
2023/05/11 07:59:26;;;;;;;;;;;;;;;19.96;64.28;101490.13;7397155;19;1395;-51
2023/05/11 08:01:57;;;;;;;;;;;;;;;19.89;64.67;101505.84;7399783;19;1035;-51
2023/05/11 08:04:26;;;;;;;;;;;;;;;19.90;64.56;101485.25;7398480;19;1804;-51
2023/05/11 08:06:54;;;;;;;;;;;;;;;19.99;64.69;101484.50;7395512;19;1842;-49
2023/05/11 08:09:23;;;;;;;;;;;;;;;19.97;64.58;101492.66;7395722;19;1463;-51
2023/05/11 08:11:52;;;;;;;;;;;;;;;19.94;64.81;101492.09;7396876;19;1247;-50
2023/05/11 08:14:21;;;;;;;;;;;;;;;20.05;64.62;101481.31;7393920;19;1851;-51
2023/05/11 08:16:49;;;;;;;;;;;;;;;20.04;64.67;101477.78;7398036;19;1612;-50
2023/05/11 08:19:20;;;;;;;;;;;;;;;20.01;64.71;101469.97;7397172;19;1396;-50
2023/05/11 08:21:48;;;;;;;;;;;;;;;20.05;64.51;101487.56;7394951;19;1504;-50
2023/05/11 08:24:17;;;;;;;;;;;;;;;20.09;64.84;101476.56;7396399;19;1204;-50
2023/05/11 08:26:46;;;;;;;;;;;;;;;19.96;65.03;101474.03;7396156;19;1867;-51
2023/05/11 08:29:14;;;;;;;;;;;;;;;20.04;65.16;101479.63;7396876;19;1537;-51
2023/05/11 08:31:42;;;;;;;;;;;;;;;19.98;65.15;101474.75;7396566;19;1151;-52
2023/05/11 08:34:11;;;;;;;;;;;;;;;20.02;65.43;101457.41;7396426;19;1292;-49
2023/05/11 08:36:42;;;;;;;;;;;;;;;20.10;65.25;101457.63;7398581;19;1148;-50
2023/05/11 08:39:10;;;;;;;;;;;;;;;20.23;65.08;101455.66;7396500;19;1621;-52
2023/05/11 08:41:38;;;;;;;;;;;;;;;20.01;65.69;101464.59;7395497;19;1494;-53
2023/05/11 08:44:07;;;;;;;;;;;;;;;20.07;65.36;101465.94;7396953;19;1775;-53
2023/05/11 08:46:37;;;;;;;;;;;;;;;20.06;65.42;101469.59;7395352;19;1861;-52
2023/05/11 08:49:05;;;;;;;;;;;;;;;19.97;65.52;101475.72;7396475;19;1843;-52
2023/05/11 08:51:34;;;;;;;;;;;;;;;20.13;65.04;101453.84;7396176;19;1709;-52
2023/05/11 08:54:06;;;;;;;;;;;;;;;20.05;65.10;101446.41;7395264;19;1227;-52
2023/05/11 08:56:35;;;;;;;;;;;;;;;19.85;65.67;101454.25;7395965;19;1664;-50
2023/05/11 08:59:06;;;;;;;;;;;;;;;19.89;65.68;101462.06;7393573;19;1301;-50
2023/05/11 09:01:36;;;;;;;;;;;;;;;19.89;65.68;101464.75;7394520;19;1315;-51
2023/05/11 09:04:05;;;;;;;;;;;;;;;19.88;65.51;101460.38;7396317;19;1502;-51
2023/05/11 09:06:33;;;;;;;;;;;;;;;19.90;65.49;101453.06;7392773;19;1873;-51
2023/05/11 09:09:05;;;;;;;;;;;;;;;20.01;65.30;101467.28;7393387;19;1267;-51
2023/05/11 09:11:33;;;;;;;;;;;;;;;19.95;65.38;101450.81;7393512;19;1449;-50
2023/05/11 09:14:02;;;;;;;;;;;;;;;20.04;65.02;101433.97;7394893;19;1415;-51
2023/05/11 09:16:30;;;;;;;;;;;;;;;20.04;65.12;101437.50;7396845;19;1287;-51
2023/05/11 09:19:01;;;;;;;;;;;;;;;20.04;65.09;101455.47;7394961;19;1562;-51
2023/05/11 09:21:31;;;;;;;;;;;;;;;20.02;64.77;101439.47;7395461;19;1621;-51
2023/05/11 09:24:00;;;;;;;;;;;;;;;19.99;65.28;101447.75;7396046;19;1124;-51
2023/05/11 09:26:35;;;;;;;;;;;;;;;19.98;65.23;101445.22;7397808;19;1846;-50
2023/05/11 09:29:03;;;;;;;;;;;;;;;20.01;65.06;101434.22;7403266;19;1613;-50
2023/05/11 09:31:38;;;;;;;;;;;;;;;20.00;64.92;101427.16;7402819;19;1311;-51
2023/05/11 09:34:11;;;;;;;;;;;;;;;20.03;64.90;101448.38;7402414;19;1478;-51
2023/05/11 09:36:39;;;;;;;;;;;;;;;19.94;65.07;101427.66;7402328;19;1233;-50
2023/05/11 09:39:07;;;;;;;;;;;;;;;19.98;64.81;101429.13;7400739;19;1483;-50
2023/05/11 09:41:38;;;;;;;;;;;;;;;19.99;64.85;101426.28;7402400;19;1201;-50
2023/05/11 09:44:10;;;;;;;;;;;;;;;19.80;65.30;101416.22;7402221;19;1498;-50
2023/05/11 09:46:39;;;;;;;;;;;;;;;19.88;65.17;101422.81;7400327;19;1870;-50
2023/05/11 09:49:08;;;;;;;;;;;;;;;19.82;65.38;101430.34;7402627;19;1545;-50
2023/05/11 09:51:37;;;;;;;;;;;;;;;19.87;65.38;101432.66;7399732;19;1198;-50
2023/05/11 09:54:18;;;;;;;;;;;;;;;19.92;64.73;101414.34;7403195;19;1170;-50
2023/05/11 09:56:50;;;;;;;;;;;;;;;19.88;65.04;101414.75;7403033;19;1070;-51
2023/05/11 09:59:19;;;;;;;;;;;;;;;19.84;65.20;101431.09;7402517;19;1132;-50
2023/05/11 10:01:47;;;;;;;;;;;;;;;19.83;65.23;101444.63;7402111;19;1482;-50
2023/05/11 10:04:15;;;;;;;;;;;;;;;19.74;65.44;101415.88;7402075;19;1522;-50
2023/05/11 10:06:48;;;;;;;;;;;;;;;19.67;65.37;101420.81;7399937;19;1867;-50
2023/05/11 10:09:17;;;;;;;;;;;;;;;19.71;65.39;101427.69;7401311;19;1199;-50
2023/05/11 10:11:47;;;;;;;;;;;;;;;19.69;65.54;101418.88;7401727;19;1486;-50
2023/05/11 10:14:20;;;;;;;;;;;;;;;19.63;65.68;101430.09;7401886;19;1549;-51
2023/05/11 10:16:49;;;;;;;;;;;;;;;19.65;65.47;101410.22;7402622;19;1299;-50
2023/05/11 10:19:18;;;;;;;;;;;;;;;19.65;65.59;101422.78;7401514;19;1601;-51
2023/05/11 10:21:47;;;;;;;;;;;;;;;19.66;64.80;101413.78;7401351;19;1327;-50
2023/05/11 10:24:16;;;;;;;;;;;;;;;19.68;65.02;101396.56;7402057;19;1605;-51
2023/05/11 10:26:44;;;;;;;;;;;;;;;19.69;65.26;101408.13;7399927;19;1852;-50
2023/05/11 10:29:13;;;;;;;;;;;;;;;19.86;64.81;101394.25;7398158;19;1284;-50
2023/05/11 10:31:44;;;;;;;;;;;;;;;19.90;64.65;101410.09;7398863;19;1937;-51
2023/05/11 10:34:13;;;;;;;;;;;;;;;19.88;64.50;101396.81;7400752;19;1216;-50
2023/05/11 10:36:41;;;;;;;;;;;;;;;19.86;64.50;101399.59;7400065;19;1245;-50
2023/05/11 10:39:10;;;;;;;;;;;;;;;19.94;64.29;101395.44;7401093;19;1507;-50
2023/05/11 10:41:46;;;;;;;;;;;;;;;19.85;64.48;101384.47;7400181;19;1593;-50
2023/05/11 10:44:23;;;;;;;;;;;;;;;19.74;64.80;101400.63;7399851;19;1499;-51
2023/05/11 10:47:09;;;;;;;;;;;;;;;19.64;64.72;101373.66;7396437;19;1877;-51
2023/05/11 10:49:50;;;;;;;;;;;;;;;19.59;64.81;101385.72;7396967;19;1431;-50
2023/05/11 10:52:29;;;;;;;;;;;;;;;19.57;64.38;101371.56;7396840;19;1441;-51
2023/05/11 10:55:08;;;;;;;;;;;;;;;19.60;64.86;101382.06;7397312;19;1467;-51
2023/05/11 10:57:43;;;;;;;;;;;;;;;19.67;64.20;101375.22;7395969;19;1447;-50
2023/05/11 11:00:30;;;;;;;;;;;;;;;19.67;65.29;101377.91;7393591;19;1376;-50
2023/05/11 11:03:10;;;;;;;;;;;;;;;19.64;64.63;101362.91;7398337;19;1230;-51
2023/05/11 11:05:39;;;;;;;;;;;;;;;19.70;64.06;101376.81;7401125;19;1856;-50
2023/05/11 11:08:08;;;;;;;;;;;;;;;19.65;64.88;101372.66;7398962;19;1907;-50
2023/05/11 11:10:37;;;;;;;;;;;;;;;19.81;64.19;101366.06;7391968;19;1416;-51
2023/05/11 11:13:06;;;;;;;;;;;;;;;19.94;63.34;101373.97;7397969;19;1946;-50
2023/05/11 11:15:49;;;;;;;;;;;;;;;19.97;63.26;101373.69;7395648;19;1487;-51
2023/05/11 11:18:24;;;;;;;;;;;;;;;19.97;62.79;101376.38;7395730;19;1919;-50
2023/05/11 11:20:53;;;;;;;;;;;;;;;20.11;62.70;101381.47;7396539;19;1673;-50
2023/05/11 11:23:36;;;;;;;;;;;;;;;20.04;63.02;101364.19;7399108;19;1727;-51
2023/05/11 11:26:05;;;;;;;;;;;;;;;20.00;63.37;101373.47;7398851;19;1841;-51
2023/05/11 11:28:48;;;;;;;;;;;;;;;19.95;63.85;101371.13;7399352;19;1621;-51
2023/05/11 11:31:34;;;;;;;;;;;;;;;20.02;63.57;101371.50;7400099;19;1789;-50
2023/05/11 11:34:33;;;;;;;;;;;;;;;19.99;64.02;101352.94;7399297;19;1826;-50
2023/05/11 11:37:05;;;;;;;;;;;;;;;20.01;63.82;101354.53;7398304;19;1913;-50
2023/05/11 11:39:49;;;;;;;;;;;;;;;20.06;64.03;101371.09;7399475;19;1818;-51
2023/05/11 11:42:18;;;;;;;;;;;;;;;20.01;64.00;101359.03;7400052;19;1425;-51
2023/05/11 11:44:47;;;;;;;;;;;;;;;20.03;64.03;101359.78;7399458;19;1716;-50
2023/05/11 11:47:17;;;;;;;;;;;;;;;19.98;64.11;101351.25;7398000;19;1850;-50
2023/05/11 11:49:46;;;;;;;;;;;;;;;19.95;64.19;101354.19;7397911;19;1823;-51
2023/05/11 11:52:33;;;;;;;;;;;;;;;20.03;64.12;101347.22;7398772;19;1732;-50
2023/05/11 11:55:05;;;;;;;;;;;;;;;20.11;64.16;101349.22;7397884;19;1947;-51
2023/05/11 11:57:50;;;;;;;;;;;;;;;19.89;64.85;101352.84;7397894;19;1397;-50
2023/05/11 12:00:22;;;;;;;;;;;;;;;20.04;64.16;101342.69;7397746;19;1834;-50
2023/05/11 12:02:51;;;;;;;;;;;;;;;20.09;64.22;101340.47;7397866;19;1059;-50
2023/05/11 12:05:21;;;;;;;;;;;;;;;20.04;64.23;101353.44;7399289;19;1468;-51
2023/05/11 12:07:51;;;;;;;;;;;;;;;20.03;64.27;101335.59;7397194;19;1860;-50
2023/05/11 12:10:23;;;;;;;;;;;;;;;20.11;64.27;101334.97;7396857;19;1481;-51
2023/05/11 12:12:53;;;;;;;;;;;;;;;19.99;64.48;101350.28;7398760;19;1674;-50
2023/05/11 12:15:25;;;;;;;;;;;;;;;20.11;64.08;101327.75;7397936;19;1476;-51
2023/05/11 12:17:54;;;;;;;;;;;;;;;20.00;64.30;101320.63;7398430;19;1658;-51
2023/05/11 12:20:22;;;;;;;;;;;;;;;20.07;64.28;101315.56;7397591;19;1417;-51
2023/05/11 12:22:52;;;;;;;;;;;;;;;20.09;64.02;101329.72;7397447;19;1756;-52
2023/05/11 12:25:23;;;;;;;;;;;;;;;20.11;64.08;101326.91;7395746;19;1804;-53
2023/05/11 12:27:53;;;;;;;;;;;;;;;20.01;64.40;101311.56;7397146;19;1818;-51
2023/05/11 12:30:23;;;;;;;;;;;;;;;20.05;64.30;101317.53;7398538;19;944;-50
2023/05/11 12:32:52;;;;;;;;;;;;;;;19.95;64.38;101308.56;7397139;19;1851;-50
2023/05/11 12:35:24;;;;;;;;;;;;;;;20.09;63.94;101313.59;7397567;19;1218;-51
2023/05/11 12:37:53;;;;;;;;;;;;;;;20.15;63.87;101306.88;7397575;19;1403;-50
2023/05/11 12:40:24;;;;;;;;;;;;;;;20.13;64.14;101312.38;7397145;19;1716;-51
2023/05/11 12:42:52;;;;;;;;;;;;;;;20.02;64.16;101307.91;7397477;19;1118;-50
2023/05/11 12:45:22;;;;;;;;;;;;;;;20.10;64.16;101301.91;7397027;19;1945;-51
2023/05/11 12:47:51;;;;;;;;;;;;;;;20.08;64.08;101294.97;7395735;19;1852;-50
2023/05/11 12:50:20;;;;;;;;;;;;;;;19.84;64.79;101306.78;7398508;19;1832;-51
2023/05/11 12:52:49;;;;;;;;;;;;;;;19.86;64.68;101291.41;7398147;19;1744;-50
2023/05/11 12:55:27;;;;;;;;;;;;;;;19.72;64.95;101289.03;7396982;19;1732;-51
2023/05/11 12:58:08;;;;;;;;;;;;;;;19.75;65.06;101276.19;7396637;19;1459;-50
2023/05/11 13:00:36;;;;;;;;;;;;;;;19.84;64.83;101288.00;7393218;19;1926;-51